Time;durP1;ratioP1;P1;durP2;ratioP2;P2;SDS_P1;SDS_P2;PMS_P1;PMS_P2;Temp;Humidity;BMP_temperature;BMP_pressure;BME280_temperature;BME280_humidity;BME280_pressure;Samples;Min_cycle;Max_cycle;Signal;HPM_P1;HPM_P2
2022/06/24 04:01:51;;;;;;;6.20;3.15;;;;;;;20.88;50.16;100392.22;5607000;31;79795;-56
2022/06/24 04:04:53;;;;;;;3.65;2.62;;;;;;;20.88;50.16;100392.22;5584051;31;33370;-56
2022/06/24 04:07:58;;;;;;;7.18;2.80;;;;;;;20.49;51.02;100398.50;5584263;31;33602;-56
2022/06/24 04:11:14;;;;;;;6.90;3.12;;;;;;;20.66;56.37;100403.66;5583946;32;33542;-56
2022/06/24 04:15:13;;;;;;;;;;;;;;;20.77;49.61;100399.31;5584243;31;33503;-56
2022/06/24 04:17:39;;;;;;;4.50;2.55;;;;;;;20.82;51.53;100401.78;5579204;32;34473;-56
2022/06/24 04:20:41;;;;;;;4.25;2.85;;;;;;;20.97;55.44;100407.63;5564246;32;33705;-57
2022/06/24 04:23:50;;;;;;;7.97;3.37;;;;;;;21.09;49.60;100407.53;5564499;32;33477;-56
2022/06/24 04:26:52;;;;;;;3.20;2.50;;;;;;;21.16;49.09;100407.72;5564313;32;34261;-56
2022/06/24 04:30:02;;;;;;;6.43;2.90;;;;;;;21.15;57.92;100419.75;5564430;32;34186;-56
2022/06/24 04:33:05;;;;;;;4.65;3.12;;;;;;;21.21;53.64;100420.31;5563513;32;33547;-56
2022/06/24 04:36:12;;;;;;;5.95;2.83;;;;;;;21.30;45.54;100410.03;5569942;32;34383;-57
2022/06/24 04:39:14;;;;;;;5.37;2.72;;;;;;;21.40;50.66;100417.69;5582282;32;34312;-57
2022/06/24 04:42:16;;;;;;;3.72;2.72;;;;;;;21.50;46.21;100414.44;5582832;31;33695;-57
2022/06/24 04:45:18;;;;;;;7.03;2.80;;;;;;;21.65;47.25;100417.50;5583319;32;33600;-57
2022/06/24 04:48:21;;;;;;;5.62;2.65;;;;;;;21.70;49.06;100419.97;5583377;31;34413;-57
2022/06/24 04:51:27;;;;;;;5.35;2.80;;;;;;;21.71;45.57;100416.87;5582986;31;33816;-57
2022/06/24 04:54:29;;;;;;;6.72;3.30;;;;;;;21.84;45.12;100423.00;5583640;32;34350;-57
2022/06/24 04:57:31;;;;;;;5.60;2.62;;;;;;;21.88;52.46;100420.37;5582523;32;33732;-57
2022/06/24 05:00:34;;;;;;;4.47;2.75;;;;;;;22.03;47.32;100411.34;5583105;32;34397;-56
2022/06/24 05:03:36;;;;;;;4.32;2.75;;;;;;;22.07;48.26;100406.75;5583623;32;33722;-56
2022/06/24 05:06:40;;;;;;;4.87;2.50;;;;;;;22.16;45.29;100404.66;5582543;32;33637;-56
2022/06/24 05:09:48;;;;;;;4.20;2.92;;;;;;;22.24;44.21;100411.84;5581664;32;33651;-57
2022/06/24 05:12:55;;;;;;;3.62;2.50;;;;;;;22.35;44.97;100420.28;5571242;32;33584;-57
2022/06/24 05:15:58;;;;;;;4.50;2.45;;;;;;;22.52;41.45;100414.38;5570139;32;34312;-56
2022/06/24 05:19:20;;;;;;;7.85;3.10;;;;;;;22.65;44.66;100415.00;5570018;32;33809;-57
2022/06/24 05:22:22;;;;;;;3.55;2.55;;;;;;;22.86;45.02;100417.34;5570164;32;33697;-56
2022/06/24 05:25:25;;;;;;;5.57;2.90;;;;;;;23.05;43.64;100421.25;5570354;32;33598;-56
2022/06/24 05:28:27;;;;;;;9.85;3.20;;;;;;;23.11;45.94;100422.50;5569460;32;33601;-57
2022/06/24 05:31:29;;;;;;;4.15;2.45;;;;;;;23.28;43.90;100419.31;5569980;32;33788;-57
2022/06/24 05:34:31;;;;;;;7.30;3.05;;;;;;;23.47;43.78;100418.41;5569931;32;33737;-56
2022/06/24 05:37:34;;;;;;;7.82;2.95;;;;;;;23.59;41.31;100422.91;5569402;32;33604;-56
2022/06/24 05:40:36;;;;;;;11.52;2.85;;;;;;;23.66;40.45;100423.03;5568581;32;33705;-57
2022/06/24 05:43:38;;;;;;;6.15;2.87;;;;;;;23.79;42.36;100426.38;5569829;32;34146;-57
2022/06/24 05:46:41;;;;;;;12.02;3.20;;;;;;;23.90;40.24;100419.87;5569202;32;34167;-57
2022/06/24 05:49:43;;;;;;;7.43;3.00;;;;;;;23.88;39.82;100432.38;5568924;32;33708;-56
2022/06/24 05:56:06;;;;;;;8.40;3.10;;;;;;;24.02;40.31;100437.28;5569482;32;33716;-57
2022/06/24 05:59:08;;;;;;;16.80;3.03;;;;;;;24.15;40.43;100444.09;5568411;32;34258;-56
2022/06/24 11:30:43;;;;;;;4.22;1.92;;;;;;;28.52;28.47;100223.72;5565888;32;34985;-54
2022/06/24 11:33:48;;;;;;;5.80;2.50;;;;;;;28.64;28.79;100223.22;5567813;32;34463;-54
2022/06/24 11:36:50;;;;;;;4.22;2.10;;;;;;;28.72;28.42;100224.72;5568991;32;33748;-54
2022/06/24 11:39:58;;;;;;;2.83;2.08;;;;;;;28.72;28.86;100215.69;5569167;32;33620;-54
2022/06/24 11:43:05;;;;;;;3.20;1.98;;;;;;;28.82;28.45;100217.53;5568652;32;33720;-54
2022/06/24 11:46:09;;;;;;;4.93;2.10;;;;;;;28.95;28.81;100212.31;5568798;32;33788;-54
2022/06/24 11:49:12;;;;;;;5.30;2.17;;;;;;;28.93;28.08;100206.41;5568963;32;33720;-54
2022/06/24 11:52:14;;;;;;;4.47;2.30;;;;;;;28.89;27.73;100205.66;5568937;32;33665;-54
2022/06/24 11:55:25;;;;;;;4.35;2.15;;;;;;;29.07;28.42;100206.28;5568878;32;34309;-54
2022/06/24 11:58:36;;;;;;;3.33;1.87;;;;;;;28.92;27.38;100205.63;5568580;32;33631;-54
2022/06/24 12:01:39;;;;;;;4.28;2.10;;;;;;;28.92;27.50;100202.87;5568114;32;33755;-54
2022/06/24 12:04:42;;;;;;;3.12;2.08;;;;;;;28.97;28.28;100205.19;5568043;32;34529;-54
2022/06/24 12:07:45;;;;;;;3.58;2.10;;;;;;;29.05;27.10;100196.84;5561803;32;33843;-54
2022/06/24 12:10:52;;;;;;;2.92;2.00;;;;;;;29.02;26.56;100184.66;5544303;32;33338;-54
2022/06/24 12:14:03;;;;;;;2.22;1.80;;;;;;;28.94;27.43;100181.16;5549252;32;33740;-54
2022/06/24 12:17:08;;;;;;;7.50;2.00;;;;;;;29.13;28.24;100184.53;5548849;32;33958;-54
2022/06/24 12:20:10;;;;;;;3.40;2.17;;;;;;;29.16;27.38;100180.97;5548907;32;33753;-54
2022/06/24 12:23:19;;;;;;;3.97;2.30;;;;;;;29.19;27.27;100183.66;5550966;32;34257;-54
2022/06/24 12:26:25;;;;;;;4.50;2.03;;;;;;;29.19;27.14;100178.16;5551320;32;33795;-54
2022/06/24 12:29:33;;;;;;;5.85;2.12;;;;;;;29.17;27.33;100183.31;5550408;32;33745;-55
2022/06/24 12:32:52;;;;;;;3.95;1.92;;;;;;;29.13;26.45;100176.25;5564908;32;34348;-55
2022/06/24 12:36:09;;;;;;;6.93;2.30;;;;;;;29.12;28.06;100175.47;5570759;32;34564;-54
2022/06/24 12:39:11;;;;;;;3.80;2.12;;;;;;;29.08;27.20;100174.75;5570751;32;33707;-54
2022/06/24 12:42:17;;;;;;;4.85;2.17;;;;;;;29.10;27.57;100164.06;5570125;32;33608;-54
2022/06/24 12:45:25;;;;;;;5.18;2.15;;;;;;;29.18;27.37;100156.50;5570765;32;33672;-54
2022/06/24 12:51:48;;;;;;;7.75;2.10;;;;;;;29.10;26.78;100153.00;5570669;32;34375;-54
2022/06/24 12:54:51;;;;;;;5.50;1.92;;;;;;;29.09;27.16;100142.41;5570246;32;34317;-54
2022/06/24 12:58:00;;;;;;;4.53;2.30;;;;;;;29.19;27.60;100147.00;5570629;32;33702;-54
2022/06/24 13:01:03;;;;;;;4.93;2.10;;;;;;;29.21;27.42;100142.66;5570405;32;33879;-54
2022/06/24 13:04:05;;;;;;;4.85;2.00;;;;;;;29.29;27.16;100137.03;5570272;32;34391;-54
2022/06/24 13:07:07;;;;;;;4.50;1.92;;;;;;;29.26;27.00;100133.13;5570599;32;33672;-54
2022/06/24 13:10:10;;;;;;;2.87;2.10;;;;;;;29.31;27.58;100127.16;5570364;32;33729;-55
2022/06/24 13:13:12;;;;;;;7.35;2.35;;;;;;;29.24;27.55;100116.97;5570473;32;34427;-55
2022/06/24 13:16:15;;;;;;;6.90;2.08;;;;;;;29.33;27.17;100108.16;5570198;32;33660;-54
2022/06/24 13:19:17;;;;;;;9.77;2.03;;;;;;;29.28;26.72;100100.38;5570417;32;33643;-54
2022/06/24 13:22:20;;;;;;;11.12;2.10;;;;;;;29.27;26.46;100087.75;5570184;32;33755;-54
2022/06/24 13:25:23;;;;;;;2.33;1.83;;;;;;;29.31;26.90;100085.72;5570337;32;34362;-54
2022/06/24 13:28:25;;;;;;;8.73;2.30;;;;;;;29.44;26.67;100081.22;5570080;32;34377;-55
2022/06/24 13:31:28;;;;;;;8.40;2.35;;;;;;;29.42;27.76;100085.59;5555857;32;33672;-54
2022/06/24 13:34:30;;;;;;;4.95;2.08;;;;;;;29.42;26.93;100080.06;5570005;32;33707;-54
2022/06/24 13:37:32;;;;;;;5.03;2.00;;;;;;;29.46;27.41;100091.81;5570198;32;33660;-54
2022/06/24 13:40:36;;;;;;;4.53;2.00;;;;;;;29.47;26.59;100091.44;5569983;32;34563;-55
2022/06/24 13:43:38;;;;;;;3.97;1.77;;;;;;;29.48;26.75;100089.44;5569927;32;34408;-54
2022/06/24 13:46:40;;;;;;;7.40;2.17;;;;;;;29.45;26.12;100082.75;5569637;32;33733;-54
2022/06/24 13:49:43;;;;;;;5.28;2.55;;;;;;;29.52;26.90;100081.88;5570002;32;33801;-54
2022/06/24 13:52:45;;;;;;;8.82;2.40;;;;;;;29.53;26.62;100082.66;5569743;32;34401;-54
2022/06/24 13:55:47;;;;;;;10.55;2.40;;;;;;;29.56;26.79;100087.34;5569946;32;34358;-54
2022/06/24 13:58:50;;;;;;;5.15;1.92;;;;;;;29.50;25.96;100075.97;5569726;32;33633;-54
2022/06/24 14:01:57;;;;;;;4.32;2.08;;;;;;;29.37;26.00;100084.06;5569898;32;34513;-54
2022/06/24 14:05:19;;;;;;;4.28;1.85;;;;;;;29.31;26.26;100077.44;5569955;32;34341;-54
2022/06/24 14:08:21;;;;;;;5.47;1.75;;;;;;;29.37;26.06;100075.78;5569880;32;33665;-54
2022/06/24 14:11:24;;;;;;;10.82;2.28;;;;;;;29.41;26.61;100071.00;5569771;32;33755;-54
2022/06/24 14:14:26;;;;;;;5.28;2.17;;;;;;;29.60;26.19;100066.00;5569905;32;34410;-54
2022/06/24 14:17:29;;;;;;;5.40;1.80;;;;;;;29.53;25.74;100066.88;5569523;32;34810;-54
2022/06/24 14:20:44;;;;;;;9.30;2.10;;;;;;;29.54;25.98;100056.59;5569727;32;33790;-54
